createdAt,value
2023-10-28T00:02:52.812Z,98420.16
2023-10-28T00:07:59.358Z,98422.69
2023-10-28T00:13:09.631Z,98439.50
2023-10-28T00:18:16.441Z,98430.81
2023-10-28T00:23:26.327Z,98438.59
2023-10-28T00:28:34.589Z,98436.59
2023-10-28T00:33:39.969Z,98442.47
2023-10-28T00:38:50.153Z,98429.56
2023-10-28T00:43:54.269Z,98438.22
2023-10-28T00:48:59.313Z,98446.88
2023-10-28T00:54:07.937Z,98449.88
2023-10-28T00:59:16.362Z,98453.59
2023-10-28T01:04:23.142Z,98458.41
2023-10-28T01:09:30.252Z,98461.25
2023-10-28T01:14:37.313Z,98468.00
2023-10-28T01:19:41.228Z,98458.44
2023-10-28T01:24:47.679Z,98459.63
2023-10-28T01:29:53.912Z,98461.34
2023-10-28T01:34:59.188Z,98457.84
2023-10-28T01:40:09.645Z,98454.31
2023-10-28T01:45:15.339Z,98450.78
2023-10-28T01:50:22.907Z,98447.28
2023-10-28T01:55:34.124Z,98458.25
2023-10-28T02:00:51.808Z,98462.75
2023-10-28T02:05:58.030Z,98477.31
2023-10-28T02:11:07.333Z,98468.38
2023-10-28T02:16:16.842Z,98474.94
2023-10-28T02:21:21.660Z,98469.59
2023-10-28T02:26:27.230Z,98483.19
2023-10-28T02:31:35.323Z,98486.34
2023-10-28T02:36:42.467Z,98502.72
2023-10-28T02:41:51.424Z,98495.38
2023-10-28T02:46:57.710Z,98492.31
2023-10-28T02:52:04.936Z,98497.22
2023-10-28T02:57:12.291Z,98495.59
2023-10-28T03:02:16.606Z,98498.41
2023-10-28T03:07:23.039Z,98493.34
2023-10-28T03:12:35.838Z,98499.91
2023-10-28T03:17:43.244Z,98492.56
2023-10-28T03:22:48.163Z,98507.75
2023-10-28T03:27:59.503Z,98507.13
2023-10-28T03:33:08.677Z,98516.47
2023-10-28T03:38:15.929Z,98517.78
2023-10-28T03:43:28.081Z,98516.34
2023-10-28T03:48:35.581Z,98513.25
2023-10-28T03:53:41.378Z,98520.25
2023-10-28T03:58:48.816Z,98530.88
2023-10-28T04:03:56.586Z,98529.41
2023-10-28T04:09:22.938Z,98541.84
2023-10-28T04:14:36.791Z,98535.97
2023-10-28T04:19:42.552Z,98536.75
2023-10-28T04:24:51.552Z,98537.09
2023-10-28T04:30:07.522Z,98540.00
2023-10-28T04:35:24.016Z,98539.50
2023-10-28T04:40:33.731Z,98543.88
2023-10-28T04:45:45.322Z,98546.16
2023-10-28T04:50:50.492Z,98544.66
2023-10-28T04:55:56.791Z,98542.19
2023-10-28T05:01:03.325Z,98544.94
2023-10-28T05:06:11.512Z,98541.63
2023-10-28T05:11:19.220Z,98555.47
2023-10-28T05:16:27.369Z,98552.78
2023-10-28T05:21:39.395Z,98556.34
2023-10-28T05:26:46.803Z,98556.47
2023-10-28T05:31:53.588Z,98572.47
2023-10-28T05:36:59.688Z,98579.78
2023-10-28T05:42:12.939Z,98584.03
2023-10-28T05:47:32.243Z,98591.69
2023-10-28T05:52:40.975Z,98589.41
2023-10-28T05:57:45.649Z,98598.69
2023-10-28T06:02:52.831Z,98599.00
2023-10-28T06:07:57.467Z,98605.66
2023-10-28T06:13:02.333Z,98617.41
2023-10-28T06:18:09.437Z,98623.75
2023-10-28T06:23:18.212Z,98630.91
2023-10-28T06:28:32.364Z,98644.31
2023-10-28T06:33:38.030Z,98645.59
2023-10-28T06:38:43.732Z,98652.78
2023-10-28T06:43:50.003Z,98660.06
2023-10-28T06:49:11.349Z,98658.56
2023-10-28T06:54:20.343Z,98663.75
2023-10-28T06:59:25.326Z,98668.13
2023-10-28T07:04:38.737Z,98670.03
2023-10-28T07:09:44.167Z,98674.13
2023-10-28T07:14:59.080Z,98680.63
2023-10-28T07:20:07.947Z,98682.81
2023-10-28T07:25:17.099Z,98686.47
2023-10-28T07:30:24.366Z,98679.88
2023-10-28T07:35:31.720Z,98692.09
2023-10-28T07:40:35.905Z,98690.66
2023-10-28T07:45:46.974Z,98704.94
2023-10-28T07:50:54.788Z,98707.41
2023-10-28T07:56:01.940Z,98714.28
2023-10-28T08:01:16.232Z,98719.00
2023-10-28T08:06:34.293Z,98734.81
2023-10-28T08:11:40.323Z,98743.41
2023-10-28T08:16:47.869Z,98738.28
2023-10-28T08:21:54.538Z,98749.31
2023-10-28T08:27:00.282Z,98753.50
2023-10-28T08:32:06.292Z,98758.81
2023-10-28T08:37:20.462Z,98768.59
2023-10-28T08:42:25.503Z,98771.22
2023-10-28T08:47:32.276Z,98773.94
2023-10-28T08:52:41.461Z,98778.00
2023-10-28T08:57:50.407Z,98772.09
2023-10-28T09:03:00.187Z,98785.03
2023-10-28T09:08:07.261Z,98785.94
2023-10-28T09:13:15.400Z,98787.81
2023-10-28T09:18:22.096Z,98792.16
2023-10-28T09:23:31.819Z,98796.25
2023-10-28T09:28:38.557Z,98803.38
2023-10-28T09:33:43.232Z,98809.41
2023-10-28T09:38:50.113Z,98816.53
2023-10-28T09:43:59.606Z,98815.03
2023-10-28T09:49:11.089Z,98820.41
2023-10-28T09:54:36.469Z,98826.06
2023-10-28T09:59:45.902Z,98829.31
2023-10-28T10:04:55.099Z,98837.78
2023-10-28T10:10:11.780Z,98836.06
2023-10-28T10:15:21.288Z,98839.38
2023-10-28T10:20:29.963Z,98840.63
2023-10-28T10:25:40.740Z,98842.06
2023-10-28T10:30:45.646Z,98833.78
2023-10-28T10:35:53.269Z,98834.31
2023-10-28T10:41:00.369Z,98839.19
2023-10-28T10:46:16.204Z,98840.06
2023-10-28T10:51:24.606Z,98836.88
2023-10-28T10:56:32.296Z,98833.94
2023-10-28T11:01:38.739Z,98829.72
2023-10-28T11:06:48.278Z,98840.66
2023-10-28T11:12:00.041Z,98842.63
2023-10-28T11:17:08.603Z,98846.47
2023-10-28T11:22:14.481Z,98841.69
2023-10-28T11:27:31.556Z,98851.44
2023-10-28T11:32:42.724Z,98849.16
2023-10-28T11:37:48.328Z,98837.25
2023-10-28T11:42:58.775Z,98833.69
2023-10-28T11:48:06.790Z,98826.56
2023-10-28T11:53:12.370Z,98829.28
2023-10-28T11:58:20.730Z,98825.66
2023-10-28T12:03:26.967Z,98829.34
2023-10-28T12:08:47.348Z,98828.56
2023-10-28T12:13:57.176Z,98830.56
2023-10-28T12:19:02.162Z,98831.16
2023-10-28T12:24:07.933Z,98827.06
2023-10-28T12:29:20.102Z,98835.81
2023-10-28T12:34:26.110Z,98833.19
2023-10-28T12:39:31.786Z,98829.00
2023-10-28T12:44:44.333Z,98844.16
2023-10-28T12:49:54.490Z,98833.03
2023-10-28T12:55:02.662Z,98834.06
2023-10-28T13:00:16.207Z,98837.69
2023-10-28T13:05:23.037Z,98850.84
2023-10-28T13:10:29.241Z,98849.78
2023-10-28T13:15:36.740Z,98845.53
2023-10-28T13:20:45.589Z,98846.72
2023-10-28T13:25:49.432Z,98851.97
2023-10-28T13:30:55.427Z,98855.59
2023-10-28T13:36:08.342Z,98848.25
2023-10-28T13:41:13.300Z,98852.69
2023-10-28T13:46:18.730Z,98851.88
2023-10-28T13:51:23.381Z,98841.72
2023-10-28T13:56:28.953Z,98853.28
2023-10-28T14:01:39.923Z,98852.25
2023-10-28T14:06:47.165Z,98866.22
2023-10-28T14:11:53.904Z,98866.97
2023-10-28T14:17:01.877Z,98862.72
2023-10-28T14:22:11.051Z,98864.16
2023-10-28T14:27:15.989Z,98863.16
2023-10-28T14:32:24.730Z,98861.91
2023-10-28T14:37:29.214Z,98868.81
2023-10-28T14:42:40.398Z,98866.34
2023-10-28T14:47:48.724Z,98870.63
2023-10-28T14:52:53.409Z,98857.25
2023-10-28T14:58:10.011Z,98865.34
2023-10-28T15:03:28.617Z,98871.63
2023-10-28T15:08:34.268Z,98869.56
2023-10-28T15:13:43.560Z,98873.19
2023-10-28T15:18:55.309Z,98881.50
2023-10-28T15:24:01.404Z,98864.84
2023-10-28T15:29:06.557Z,98869.59
2023-10-28T15:34:18.950Z,98879.88
2023-10-28T15:39:27.543Z,98876.63
2023-10-28T15:49:53.580Z,98878.59
2023-10-28T15:54:58.736Z,98880.34
2023-10-28T16:00:05.426Z,98882.94
2023-10-28T16:05:14.183Z,98885.75
2023-10-28T16:10:21.798Z,98893.81
2023-10-28T16:15:26.757Z,98900.47
2023-10-28T16:20:36.684Z,98907.56
2023-10-28T16:25:40.568Z,98909.13
2023-10-28T16:30:45.704Z,98910.06
2023-10-28T16:35:51.719Z,98916.78
2023-10-28T16:40:58.622Z,98912.47
2023-10-28T16:46:02.782Z,98922.09
2023-10-28T16:51:14.749Z,98933.63
2023-10-28T16:56:20.981Z,98935.97
2023-10-28T17:01:30.028Z,98946.16
2023-10-28T17:06:41.396Z,98947.94
2023-10-28T17:11:45.893Z,98953.41
2023-10-28T17:17:02.293Z,98951.13
2023-10-28T17:22:10.238Z,98952.31
2023-10-28T17:27:25.633Z,98950.88
2023-10-28T17:32:33.249Z,98955.97
2023-10-28T17:37:48.250Z,98966.66
2023-10-28T17:42:57.215Z,98972.28
2023-10-28T17:48:04.138Z,98979.16
2023-10-28T17:53:11.343Z,98968.19
2023-10-28T17:58:17.299Z,98982.88
2023-10-28T18:03:28.906Z,98981.78
2023-10-28T18:08:36.486Z,98986.09
2023-10-28T18:13:40.698Z,98988.00
2023-10-28T18:18:44.961Z,98981.56
2023-10-28T18:23:52.444Z,98985.66
2023-10-28T18:28:59.702Z,98982.66
2023-10-28T18:34:05.833Z,98986.16
2023-10-28T18:39:15.660Z,98992.09
2023-10-28T18:44:25.956Z,98994.09
2023-10-28T18:49:35.496Z,99003.50
2023-10-28T18:54:43.775Z,99007.66
2023-10-28T18:59:49.148Z,99004.19
2023-10-28T19:04:57.023Z,99007.31
2023-10-28T19:10:03.724Z,99014.59
2023-10-28T19:15:10.706Z,99018.09
2023-10-28T19:20:15.883Z,99011.91
2023-10-28T19:25:26.059Z,99008.53
2023-10-28T19:30:34.296Z,99008.75
2023-10-28T19:35:40.841Z,99013.84
2023-10-28T19:40:48.388Z,99017.81
2023-10-28T19:45:56.695Z,99020.31
2023-10-28T19:51:03.422Z,99023.78
2023-10-28T19:56:13.297Z,99027.91
2023-10-28T20:01:20.127Z,99016.94
2023-10-28T20:06:26.606Z,99018.63
2023-10-28T20:11:38.074Z,99022.22
2023-10-28T20:16:44.469Z,99045.19
2023-10-28T20:21:51.633Z,99050.09
2023-10-28T20:27:11.337Z,99046.00
2023-10-28T20:32:15.917Z,99033.72
2023-10-28T20:37:20.675Z,99054.00
2023-10-28T20:42:31.437Z,99046.63
2023-10-28T20:47:53.000Z,99056.25
2023-10-28T20:52:58.955Z,99052.63
2023-10-28T20:58:05.139Z,99053.28
2023-10-28T21:03:09.713Z,99042.50
2023-10-28T21:08:23.240Z,99044.47
2023-10-28T21:13:30.362Z,99033.63
2023-10-28T21:18:38.394Z,99033.00
2023-10-28T21:23:43.760Z,99027.84
2023-10-28T21:28:50.387Z,99021.31
2023-10-28T21:33:56.107Z,99024.38
2023-10-28T21:39:01.027Z,99022.38
2023-10-28T21:44:07.529Z,99034.00
2023-10-28T21:49:12.329Z,99028.13
2023-10-28T21:54:18.442Z,99019.97
2023-10-28T21:59:25.966Z,99024.22
2023-10-28T22:04:34.221Z,99021.09
2023-10-28T22:09:38.648Z,99014.66
2023-10-28T22:14:47.014Z,99017.16
2023-10-28T22:19:57.857Z,99007.84
2023-10-28T22:25:02.186Z,99018.47
2023-10-28T22:30:13.056Z,99013.25
2023-10-28T22:35:18.484Z,99024.38
2023-10-28T22:40:26.569Z,99015.50
2023-10-28T22:45:38.550Z,99024.84
2023-10-28T22:50:44.065Z,99021.88
2023-10-28T22:55:48.437Z,99022.38
2023-10-28T23:01:00.484Z,99016.16
2023-10-28T23:06:08.705Z,99011.19
2023-10-28T23:11:16.023Z,98999.38
2023-10-28T23:16:26.590Z,99002.97
2023-10-28T23:21:31.850Z,99000.03
2023-10-28T23:26:48.530Z,99001.31
2023-10-28T23:31:56.609Z,98991.44
2023-10-28T23:37:03.891Z,98984.22
2023-10-28T23:42:09.117Z,98989.09
2023-10-28T23:47:17.016Z,98991.38
2023-10-28T23:52:21.012Z,98977.09
2023-10-28T23:57:25.813Z,98972.31
